Time;durP1;ratioP1;P1;durP2;ratioP2;P2;SDS_P1;SDS_P2;PMS_P1;PMS_P2;Temp;Humidity;BMP_temperature;BMP_pressure;BME280_temperature;BME280_humidity;BME280_pressure;Samples;Min_cycle;Max_cycle;Signal;HPM_P1;HPM_P2
2023/08/10 00:02:01;;;;;;;5.65;2.20;;;;;;;15.77;100.00;101066.91;8312321;28;20120;-60
2023/08/10 00:06:02;;;;;;;3.95;1.80;;;;;;;15.76;100.00;101063.50;8309481;28;20057;-61
2023/08/10 00:10:03;;;;;;;5.15;1.55;;;;;;;15.50;100.00;101066.22;8310053;28;20522;-61
2023/08/10 00:14:04;;;;;;;4.32;2.03;;;;;;;15.69;100.00;101069.59;8308850;28;20522;-61
2023/08/10 00:18:05;;;;;;;4.03;1.70;;;;;;;15.76;100.00;101068.97;8307397;28;20440;-61
2023/08/10 00:22:05;;;;;;;7.18;2.03;;;;;;;15.83;100.00;101064.56;8306450;28;20117;-61
2023/08/10 00:26:06;;;;;;;5.05;2.17;;;;;;;15.43;100.00;101063.25;8309663;28;20598;-60
2023/08/10 00:30:07;;;;;;;3.63;1.83;;;;;;;15.11;100.00;101068.41;8309465;28;20048;-60
2023/08/10 00:34:08;;;;;;;6.88;2.10;;;;;;;15.28;100.00;101064.78;8330260;28;20095;-60
2023/08/10 00:38:08;;;;;;;5.72;1.95;;;;;;;15.45;100.00;101072.13;8307564;28;20038;-60
2023/08/10 00:42:10;;;;;;;2.60;1.60;;;;;;;15.35;100.00;101060.44;8309779;28;20041;-61
2023/08/10 00:46:11;;;;;;;2.53;1.83;;;;;;;15.39;100.00;101070.03;8307748;28;20063;-60
2023/08/10 00:50:12;;;;;;;3.42;1.80;;;;;;;15.26;100.00;101077.75;8307327;28;20042;-60
2023/08/10 00:54:13;;;;;;;3.05;1.60;;;;;;;14.94;100.00;101076.53;8307626;28;20084;-60
2023/08/10 00:58:14;;;;;;;4.53;1.90;;;;;;;15.08;100.00;101076.88;8307350;28;20034;-61
2023/08/10 01:02:14;;;;;;;4.97;1.98;;;;;;;15.01;100.00;101073.03;8309950;28;20037;-61
2023/08/10 01:06:26;;;;;;;6.95;2.10;;;;;;;14.98;100.00;101067.06;8307616;28;20128;-61
2023/08/10 01:10:37;;;;;;;4.35;2.20;;;;;;;15.02;100.00;101066.63;8300799;28;20068;-62
2023/08/10 01:14:44;;;;;;;8.75;1.95;;;;;;;15.08;100.00;101079.59;8305653;28;20038;-62
2023/08/10 01:18:47;;;;;;;2.58;1.67;;;;;;;14.87;100.00;101081.78;8305179;28;20049;-62
2023/08/10 01:23:26;;;;;;;4.10;1.83;;;;;;;14.63;100.00;101081.50;8299867;28;20041;-62
2023/08/10 01:27:29;;;;;;;4.20;2.03;;;;;;;14.95;100.00;101079.13;8300132;28;20037;-61
2023/08/10 01:31:29;;;;;;;6.65;1.90;;;;;;;14.79;100.00;101073.50;8305337;28;20045;-62
2023/08/10 01:35:30;;;;;;;8.30;2.25;;;;;;;14.83;100.00;101083.09;8306388;28;20112;-62
2023/08/10 01:39:32;;;;;;;4.40;1.90;;;;;;;14.94;100.00;101088.31;8306309;28;20128;-62
2023/08/10 01:43:32;;;;;;;4.10;1.50;;;;;;;14.85;100.00;101083.78;8306730;28;20042;-64
2023/08/10 01:51:48;;;;;;;5.22;1.63;;;;;;;14.50;100.00;101083.75;8409921;27;20942;-60
2023/08/10 01:55:49;;;;;;;4.15;2.05;;;;;;;14.47;100.00;101088.63;8402289;27;20420;-61
2023/08/10 01:59:49;;;;;;;5.82;1.90;;;;;;;14.27;100.00;101087.84;8397728;27;20123;-61
2023/08/10 02:03:50;;;;;;;5.90;2.17;;;;;;;14.33;100.00;101089.13;8398056;27;20039;-60
2023/08/10 02:07:50;;;;;;;5.22;2.20;;;;;;;14.37;100.00;101087.81;8405388;27;20028;-60
2023/08/10 02:11:51;;;;;;;6.97;2.00;;;;;;;14.36;100.00;101088.84;8401646;27;20445;-60
2023/08/10 02:15:51;;;;;;;8.77;2.45;;;;;;;14.27;100.00;101087.84;8401737;27;20048;-60
2023/08/10 02:19:53;;;;;;;3.65;2.00;;;;;;;14.21;100.00;101099.28;8396941;27;20494;-60
2023/08/10 02:23:53;;;;;;;4.57;2.42;;;;;;;14.62;100.00;101096.13;8409493;27;20417;-60
2023/08/10 02:27:54;;;;;;;3.65;2.28;;;;;;;14.79;100.00;101095.28;8400727;27;20032;-61
2023/08/10 02:31:55;;;;;;;3.95;2.28;;;;;;;14.71;100.00;101091.63;8400360;27;20040;-61
2023/08/10 02:35:55;;;;;;;3.08;1.73;;;;;;;14.47;100.00;101078.59;8400767;27;20037;-61
2023/08/10 02:39:56;;;;;;;4.97;2.00;;;;;;;14.72;100.00;101080.59;8399669;27;20032;-60
2023/08/10 02:43:56;;;;;;;6.15;1.80;;;;;;;14.81;100.00;101076.94;8400670;27;20532;-60
2023/08/10 02:47:56;;;;;;;6.63;1.95;;;;;;;14.74;100.00;101077.72;8399938;27;20085;-61
2023/08/10 02:51:57;;;;;;;4.80;2.08;;;;;;;14.73;100.00;101081.44;8396293;27;20068;-61
2023/08/10 02:55:58;;;;;;;2.50;1.60;;;;;;;14.60;100.00;101084.53;8398754;27;20434;-61
2023/08/10 02:59:58;;;;;;;4.55;1.98;;;;;;;14.61;100.00;101083.50;8399010;27;20040;-61
2023/08/10 03:03:59;;;;;;;4.78;2.20;;;;;;;14.69;100.00;101082.75;8377996;28;20114;-61
2023/08/10 03:08:00;;;;;;;8.25;2.25;;;;;;;14.61;100.00;101096.28;8376964;28;20052;-61
2023/08/10 03:12:00;;;;;;;3.83;2.13;;;;;;;14.32;100.00;101085.56;8372049;28;20110;-61
2023/08/10 03:16:01;;;;;;;3.22;2.25;;;;;;;14.28;100.00;101095.03;8377533;28;20123;-61
2023/08/10 03:20:06;;;;;;;5.10;1.95;;;;;;;14.38;100.00;101103.13;8375592;28;20048;-61
2023/08/10 03:24:08;;;;;;;2.08;1.73;;;;;;;14.35;100.00;101104.28;8373991;28;20052;-61
2023/08/10 03:28:09;;;;;;;7.15;2.10;;;;;;;14.22;100.00;101095.59;8393120;28;20075;-61
2023/08/10 03:32:09;;;;;;;5.13;1.73;;;;;;;14.14;100.00;101097.31;8381280;28;20071;-61
2023/08/10 03:36:10;;;;;;;3.08;1.80;;;;;;;14.21;100.00;101102.00;8373921;28;20044;-61
2023/08/10 03:40:11;;;;;;;3.20;1.75;;;;;;;14.34;100.00;101107.16;8376289;28;20044;-61
2023/08/10 03:44:12;;;;;;;5.30;1.73;;;;;;;14.41;100.00;101100.09;8378919;28;20040;-61
2023/08/10 03:48:12;;;;;;;5.55;2.28;;;;;;;14.46;100.00;101115.00;8375961;28;20044;-61
2023/08/10 03:52:13;;;;;;;3.65;1.83;;;;;;;14.38;100.00;101117.59;8376161;28;20288;-61
2023/08/10 03:56:13;;;;;;;5.88;2.00;;;;;;;14.04;100.00;101110.97;8375893;28;20040;-61
2023/08/10 04:00:16;;;;;;;4.40;2.25;;;;;;;13.95;100.00;101119.16;8367914;28;20068;-59
2023/08/10 04:04:20;;;;;;;3.53;1.77;;;;;;;13.73;100.00;101128.50;8378757;28;20040;-61
2023/08/10 04:08:20;;;;;;;2.92;1.75;;;;;;;13.67;100.00;101129.09;8358726;28;20063;-62
2023/08/10 04:12:21;;;;;;;3.80;1.80;;;;;;;13.67;100.00;101131.81;8353894;28;20063;-62
2023/08/10 04:16:22;;;;;;;4.20;2.42;;;;;;;13.74;100.00;101136.53;8353227;28;20896;-62
2023/08/10 04:20:22;;;;;;;4.35;2.10;;;;;;;13.75;100.00;101129.19;8357296;28;20045;-61
2023/08/10 04:24:23;;;;;;;4.82;1.80;;;;;;;13.81;100.00;101139.50;8373005;28;20127;-61
2023/08/10 04:28:24;;;;;;;2.65;2.05;;;;;;;13.68;100.00;101144.38;8360985;28;20037;-61
2023/08/10 04:32:24;;;;;;;4.95;2.28;;;;;;;13.68;100.00;101149.81;8365493;28;20036;-61
2023/08/10 04:36:24;;;;;;;5.75;2.55;;;;;;;13.75;100.00;101140.06;8358511;28;20055;-61
2023/08/10 04:40:25;;;;;;;9.07;1.80;;;;;;;13.83;100.00;101140.22;8356998;28;20494;-60
2023/08/10 04:44:25;;;;;;;6.18;2.33;;;;;;;13.91;100.00;101148.50;8378291;28;20494;-60
2023/08/10 04:48:26;;;;;;;6.15;2.30;;;;;;;13.95;100.00;101144.47;8374060;28;20047;-60
2023/08/10 04:52:27;;;;;;;6.25;2.30;;;;;;;14.03;100.00;101143.75;8374266;28;20399;-60
2023/08/10 04:56:27;;;;;;;3.40;2.28;;;;;;;14.11;100.00;101155.59;8369990;28;20032;-60
2023/08/10 05:00:28;;;;;;;3.70;2.30;;;;;;;14.36;100.00;101141.34;8370382;28;20886;-60
2023/08/10 05:04:28;;;;;;;5.30;2.20;;;;;;;14.48;100.00;101150.19;8377886;28;20044;-61
2023/08/10 05:08:29;;;;;;;4.28;2.30;;;;;;;14.53;100.00;101150.59;8376080;28;20040;-62
2023/08/10 05:12:30;;;;;;;3.78;2.13;;;;;;;14.64;100.00;101148.53;8376952;28;20044;-60
2023/08/10 05:16:31;;;;;;;5.53;2.40;;;;;;;14.72;100.00;101148.63;8370412;28;20112;-62
2023/08/10 05:20:32;;;;;;;5.97;3.35;;;;;;;14.82;100.00;101160.31;8398166;28;20036;-62
2023/08/10 05:24:32;;;;;;;3.33;2.55;;;;;;;14.91;100.00;101145.78;8367913;28;20040;-62
2023/08/10 05:28:33;;;;;;;9.07;2.95;;;;;;;14.95;100.00;101143.63;8367900;28;20076;-61
2023/08/10 05:32:35;;;;;;;4.90;2.67;;;;;;;14.92;100.00;101150.25;8367653;28;20041;-61
2023/08/10 05:36:35;;;;;;;7.00;2.90;;;;;;;15.10;100.00;101153.81;8360074;28;20036;-61
2023/08/10 05:40:36;;;;;;;11.90;2.50;;;;;;;15.38;100.00;101160.97;8371146;28;20044;-62
2023/08/10 05:44:36;;;;;;;14.68;2.83;;;;;;;15.76;100.00;101167.09;8368342;28;20032;-62
2023/08/10 05:48:37;;;;;;;4.03;2.20;;;;;;;16.09;100.00;101152.66;8367273;28;20061;-62
2023/08/10 05:52:37;;;;;;;4.65;2.70;;;;;;;16.66;96.11;101168.41;8373310;28;20037;-62
2023/08/10 05:56:38;;;;;;;6.82;2.00;;;;;;;17.44;92.31;101165.22;8362793;28;20040;-62
2023/08/10 06:00:39;;;;;;;2.90;2.03;;;;;;;17.60;89.70;101159.81;8402789;28;20132;-60
2023/08/10 06:04:41;;;;;;;6.95;2.38;;;;;;;17.27;90.35;101155.28;8373288;28;20029;-60
2023/08/10 06:08:42;;;;;;;6.35;2.60;;;;;;;17.17;93.86;101162.78;8376704;28;20048;-60
2023/08/10 06:12:42;;;;;;;4.65;1.98;;;;;;;17.10;92.62;101167.19;8372985;28;20086;-60
2023/08/10 06:16:43;;;;;;;7.95;2.65;;;;;;;17.21;95.52;101175.06;8370567;28;20105;-60
2023/08/10 06:20:45;;;;;;;10.48;2.47;;;;;;;17.67;92.54;101166.28;8372837;28;20128;-59
2023/08/10 06:24:46;;;;;;;7.43;2.47;;;;;;;18.05;87.95;101157.38;8380734;28;20097;-59
2023/08/10 06:28:46;;;;;;;6.15;2.10;;;;;;;17.80;87.05;101161.16;8353012;28;20064;-60
2023/08/10 06:32:47;;;;;;;5.65;2.58;;;;;;;17.58;86.02;101161.84;8349068;28;20037;-59
2023/08/10 06:36:47;;;;;;;6.93;2.40;;;;;;;18.21;85.38;101165.53;8375297;28;20036;-59
2023/08/10 06:40:48;;;;;;;9.02;2.20;;;;;;;18.73;83.34;101172.28;8378874;28;20040;-59
2023/08/10 06:44:48;;;;;;;3.75;1.70;;;;;;;18.82;81.87;101182.16;8376137;28;20035;-59
2023/08/10 06:48:49;;;;;;;8.82;1.92;;;;;;;19.43;79.71;101181.38;8376512;28;21059;-59
2023/08/10 06:52:49;;;;;;;8.48;2.20;;;;;;;19.15;81.13;101177.38;8377960;28;20040;-59
2023/08/10 06:56:49;;;;;;;3.45;1.58;;;;;;;19.46;79.14;101178.28;8377940;28;20040;-59
2023/08/10 07:00:50;;;;;;;6.40;2.45;;;;;;;19.77;78.58;101183.69;8373591;28;20499;-59
2023/08/10 07:04:51;;;;;;;7.15;2.10;;;;;;;19.85;78.51;101175.41;8376975;28;20044;-59
2023/08/10 07:08:52;;;;;;;4.03;1.70;;;;;;;19.84;76.65;101176.44;8378258;28;20041;-59
2023/08/10 07:12:53;;;;;;;4.65;1.92;;;;;;;20.28;75.50;101177.44;8377972;28;20531;-59
2023/08/10 07:16:53;;;;;;;7.20;1.50;;;;;;;20.54;76.56;101178.69;8376631;28;20049;-59
2023/08/10 07:20:56;;;;;;;5.50;1.40;;;;;;;20.53;76.70;101170.63;8374030;28;20387;-59
2023/08/10 07:25:00;;;;;;;5.07;0.93;;;;;;;20.54;68.75;101172.34;8377094;28;20048;-59
2023/08/10 07:29:00;;;;;;;2.13;0.90;;;;;;;20.84;67.72;101176.78;8377923;28;20051;-59
2023/08/10 07:33:00;;;;;;;5.10;0.68;;;;;;;21.05;66.76;101171.41;8376784;28;20303;-59
2023/08/10 07:37:01;;;;;;;4.32;1.10;;;;;;;20.97;68.06;101180.59;8376676;28;20047;-59
2023/08/10 07:41:01;;;;;;;4.90;0.93;;;;;;;21.24;66.43;101176.28;8371416;28;20032;-59
2023/08/10 07:45:03;;;;;;;2.70;0.57;;;;;;;20.84;61.29;101183.16;8376833;28;20131;-59
2023/08/10 07:49:05;;;;;;;5.13;0.85;;;;;;;20.58;65.68;101182.75;8376301;28;20047;-59
2023/08/10 07:53:05;;;;;;;2.85;0.70;;;;;;;21.11;65.09;101184.38;8372104;28;20051;-59
2023/08/10 07:57:05;;;;;;;1.85;0.57;;;;;;;21.18;63.46;101172.41;8376076;28;20045;-59
2023/08/10 08:01:07;;;;;;;4.05;0.90;;;;;;;20.97;64.98;101168.75;8354946;28;20471;-59
2023/08/10 08:05:08;;;;;;;1.55;0.82;;;;;;;21.10;64.38;101174.41;8374598;28;20093;-59
2023/08/10 08:09:08;;;;;;;3.63;0.80;;;;;;;21.03;65.08;101167.97;8375812;28;20122;-59
2023/08/10 08:13:09;;;;;;;2.63;0.75;;;;;;;21.41;63.46;101172.25;8370034;28;20068;-59
2023/08/10 08:17:10;;;;;;;2.80;0.70;;;;;;;21.36;62.20;101171.97;8374031;28;20044;-59
2023/08/10 08:21:13;;;;;;;3.47;0.70;;;;;;;21.72;62.17;101175.56;8369116;28;20071;-59
2023/08/10 08:25:13;;;;;;;4.40;0.95;;;;;;;21.92;60.51;101171.09;8373836;28;20053;-60
2023/08/10 08:29:14;;;;;;;2.90;0.70;;;;;;;21.59;59.90;101169.88;8372082;28;20041;-59
2023/08/10 08:33:16;;;;;;;7.07;0.80;;;;;;;21.62;59.06;101168.66;8372744;28;20055;-59
2023/08/10 08:37:16;;;;;;;2.22;0.80;;;;;;;22.23;59.22;101166.06;8374111;28;20040;-59
2023/08/10 08:41:18;;;;;;;7.55;1.00;;;;;;;22.49;62.70;101166.28;8374613;28;20041;-59
2023/08/10 08:45:19;;;;;;;2.22;0.80;;;;;;;22.25;59.37;101160.34;8376137;28;20040;-59
2023/08/10 08:49:20;;;;;;;5.82;0.85;;;;;;;22.34;59.34;101151.75;8373329;28;20526;-60
2023/08/10 08:53:22;;;;;;;3.00;0.43;;;;;;;22.62;57.64;101143.47;8365675;28;20495;-59
2023/08/10 08:57:22;;;;;;;3.80;0.80;;;;;;;22.52;57.67;101141.09;8357063;28;20033;-59
2023/08/10 09:01:23;;;;;;;3.70;0.90;;;;;;;22.09;58.77;101145.00;8356928;28;20115;-59
2023/08/10 09:05:24;;;;;;;5.38;1.27;;;;;;;21.91;58.52;101136.38;8357265;28;20037;-59
2023/08/10 09:09:25;;;;;;;7.55;0.95;;;;;;;22.09;59.36;101131.22;8356563;28;20106;-60
2023/08/10 09:13:25;;;;;;;2.03;0.82;;;;;;;22.30;57.02;101142.19;8356890;28;20037;-60
2023/08/10 09:17:26;;;;;;;1.83;0.65;;;;;;;21.91;57.05;101130.84;8356887;28;20059;-60
2023/08/10 09:21:31;;;;;;;2.55;0.95;;;;;;;21.98;56.82;101145.53;8355489;28;20037;-60
2023/08/10 09:25:37;;;;;;;2.13;0.60;;;;;;;22.00;56.60;101146.19;8379762;28;20040;-60
2023/08/10 09:29:40;;;;;;;4.70;0.77;;;;;;;22.10;56.46;101141.19;8389316;28;20135;-60
2023/08/10 09:33:40;;;;;;;2.30;0.52;;;;;;;22.17;55.84;101142.06;8393021;28;20380;-60
2023/08/10 09:37:42;;;;;;;7.60;0.80;;;;;;;22.73;59.30;101143.75;8389218;28;20032;-60
2023/08/10 09:41:42;;;;;;;1.85;0.60;;;;;;;22.60;56.38;101142.84;8388293;28;20048;-60
2023/08/10 09:45:43;;;;;;;1.20;0.55;;;;;;;23.18;58.03;101134.81;8389408;28;20040;-60
2023/08/10 09:50:02;;;;;;;1.50;0.68;;;;;;;23.57;56.33;101136.03;8411529;28;20052;-60
2023/08/10 09:54:03;;;;;;;2.08;0.60;;;;;;;24.97;50.99;101131.66;8410759;28;20047;-60
2023/08/10 09:58:04;;;;;;;2.15;0.60;;;;;;;26.76;49.13;101124.34;8388704;28;20040;-59
2023/08/10 10:02:09;;;;;;;5.70;0.70;;;;;;;27.08;50.06;101127.78;8387921;28;20048;-57
2023/08/10 10:06:10;;;;;;;66.80;8.80;;;;;;;28.14;48.19;101123.22;8386634;28;20076;-56
2023/08/10 10:10:12;;;;;;;12.68;1.80;;;;;;;28.86;46.55;101133.88;8391345;28;20055;-59
2023/08/10 10:14:13;;;;;;;9.43;1.30;;;;;;;28.81;45.57;101130.97;8396976;28;20042;-57
2023/08/10 10:18:14;;;;;;;2.78;0.70;;;;;;;30.04;43.66;101127.34;8429293;28;20037;-56
2023/08/10 10:22:17;;;;;;;37.10;5.10;;;;;;;29.24;45.76;101131.38;8396642;28;20041;-56
2023/08/10 10:26:19;;;;;;;6.00;1.10;;;;;;;28.76;45.15;101128.09;8396456;28;20037;-58
2023/08/10 10:30:23;;;;;;;4.30;1.25;;;;;;;28.90;47.10;101128.69;8396146;28;20113;-58
2023/08/10 10:34:32;;;;;;;3.90;0.98;;;;;;;29.76;45.93;101129.38;8395734;28;20039;-58
2023/08/10 10:38:33;;;;;;;4.95;0.93;;;;;;;31.59;42.35;101130.72;8395802;28;20035;-58
2023/08/10 10:42:33;;;;;;;4.00;0.80;;;;;;;30.58;42.83;101124.88;8395875;28;20040;-58
2023/08/10 10:46:37;;;;;;;4.80;1.42;;;;;;;30.00;43.96;101131.75;8395670;28;20055;-62
2023/08/10 10:50:37;;;;;;;3.90;1.40;;;;;;;30.27;43.93;101138.38;8394309;28;20059;-56
2023/08/10 10:54:38;;;;;;;2.88;1.27;;;;;;;30.81;44.21;101127.47;8395501;28;20048;-59
2023/08/10 10:58:40;;;;;;;3.72;1.98;;;;;;;30.66;44.53;101125.28;8395785;28;20044;-59
2023/08/10 11:02:41;;;;;;;6.28;2.20;;;;;;;30.73;44.21;101122.31;8395447;28;20047;-58
2023/08/10 11:06:41;;;;;;;9.43;2.20;;;;;;;30.89;44.45;101132.63;8394872;28;20490;-58
2023/08/10 11:10:44;;;;;;;7.22;2.20;;;;;;;31.48;43.23;101124.16;8394827;28;20090;-58
2023/08/10 11:14:44;;;;;;;6.95;1.52;;;;;;;32.72;41.04;101119.09;8412003;28;20045;-59
2023/08/10 11:18:46;;;;;;;8.18;3.08;;;;;;;31.56;42.43;101131.25;8398167;28;20029;-58
2023/08/10 11:22:48;;;;;;;6.32;2.83;;;;;;;30.95;44.70;101117.63;8393438;28;20037;-59
2023/08/10 11:26:50;;;;;;;5.43;2.75;;;;;;;31.20;43.85;101115.13;8393610;28;20037;-58
2023/08/10 11:30:50;;;;;;;6.05;2.75;;;;;;;31.90;42.83;101099.16;8393415;28;20044;-59
2023/08/10 11:34:53;;;;;;;6.30;3.30;;;;;;;32.41;42.97;101087.25;8393037;28;20097;-58
2023/08/10 11:38:53;;;;;;;7.63;3.78;;;;;;;32.72;43.01;101079.88;8391075;28;20048;-59
2023/08/10 11:43:12;;;;;;;8.13;3.55;;;;;;;32.55;43.37;101074.47;8392776;28;20068;-59
2023/08/10 11:47:14;;;;;;;6.05;3.92;;;;;;;31.43;43.34;101086.91;8421305;28;20028;-59
2023/08/10 11:51:17;;;;;;;5.90;3.05;;;;;;;31.65;43.45;101084.91;8413596;28;20040;-58
2023/08/10 11:55:20;;;;;;;6.93;3.80;;;;;;;31.68;43.34;101084.38;8401274;28;20052;-58
2023/08/10 11:59:32;;;;;;;7.40;3.88;;;;;;;32.03;42.97;101087.50;8439078;28;20111;-61
2023/08/10 12:03:36;;;;;;;6.05;3.90;;;;;;;31.90;43.37;101093.56;8347886;22;20103;-87
2023/08/10 12:07:36;;;;;;;8.60;4.18;;;;;;;29.51;45.92;101054.44;8255063;28;20039;-88
2023/08/10 12:11:38;;;;;;;9.10;4.38;;;;;;;27.95;49.85;101063.25;8251973;28;20517;-87
2023/08/10 12:15:48;;;;;;;10.25;4.82;;;;;;;26.62;51.70;101067.31;8243086;28;20038;-85
2023/08/10 12:19:48;;;;;;;9.32;4.53;;;;;;;26.46;52.01;101084.53;8224767;28;20097;-86
2023/08/10 12:23:49;;;;;;;15.02;6.10;;;;;;;25.98;52.99;101075.22;8240444;28;20039;-88
2023/08/10 12:27:50;;;;;;;12.30;6.75;;;;;;;25.87;53.94;101077.84;8238965;28;20050;-87
2023/08/10 12:31:51;;;;;;;28.48;6.70;;;;;;;25.82;53.78;101064.69;8251140;28;20093;-88
2023/08/10 12:35:52;;;;;;;14.90;6.47;;;;;;;25.92;53.87;101059.47;8231476;28;20058;-88
2023/08/10 12:39:53;;;;;;;29.40;8.07;;;;;;;26.08;53.88;101056.16;8198149;28;20032;-88
2023/08/10 12:43:54;;;;;;;92.03;14.25;;;;;;;25.91;53.29;101057.78;8248748;28;20039;-88
2023/08/10 12:47:55;;;;;;;18.77;8.65;;;;;;;25.56;53.87;101048.28;8293902;28;20046;-89
2023/08/10 12:51:55;;;;;;;29.90;9.65;;;;;;;25.84;55.00;101062.53;8227950;28;20050;-88
2023/08/10 12:56:00;;;;;;;29.35;8.93;;;;;;;25.60;54.19;101060.59;8204802;28;20047;-88
2023/08/10 13:00:05;;;;;;;19.10;7.35;;;;;;;25.39;54.10;101057.34;8202478;28;20209;-87
2023/08/10 13:04:06;;;;;;;15.88;7.60;;;;;;;25.69;54.80;101055.63;8261600;28;20029;-87
2023/08/10 13:08:06;;;;;;;15.57;8.20;;;;;;;25.79;53.26;101064.28;8252182;28;20066;-87
2023/08/10 13:12:07;;;;;;;34.00;8.80;;;;;;;25.76;54.14;101062.81;8238091;28;20034;-88
2023/08/10 13:16:07;;;;;;;13.88;7.00;;;;;;;25.59;53.87;101061.69;8281474;28;20042;-87
2023/08/10 13:20:08;;;;;;;14.93;7.45;;;;;;;25.67;55.48;101057.78;8252378;28;20115;-88
2023/08/10 13:24:09;;;;;;;17.42;7.57;;;;;;;25.66;53.81;101059.69;8263330;28;20030;-88
2023/08/10 13:28:10;;;;;;;12.32;6.60;;;;;;;25.92;54.12;101065.00;8278120;28;20031;-88
2023/08/10 13:32:11;;;;;;;15.82;6.88;;;;;;;25.77;53.78;101078.34;8261186;28;20126;-88
2023/08/10 13:36:14;;;;;;;13.23;5.93;;;;;;;25.91;54.57;101063.31;8219525;28;20069;-87
2023/08/10 13:40:14;;;;;;;14.02;6.20;;;;;;;25.77;55.40;101071.97;8233693;28;20030;-87
2023/08/10 13:44:15;;;;;;;13.68;7.13;;;;;;;26.08;54.87;101070.03;8249860;28;20054;-87
2023/08/10 13:48:16;;;;;;;11.27;6.35;;;;;;;25.95;55.14;101036.84;8235107;28;20039;-87
2023/08/10 13:52:16;;;;;;;15.55;7.03;;;;;;;26.19;54.72;101047.06;8235255;28;20039;-87
2023/08/10 13:56:17;;;;;;;15.65;7.00;;;;;;;26.40;53.93;101052.19;8216420;28;20058;-87
2023/08/10 14:00:18;;;;;;;15.02;7.45;;;;;;;26.28;54.38;101042.94;8234251;28;20050;-87
2023/08/10 14:04:19;;;;;;;17.20;6.85;;;;;;;25.98;54.91;101041.94;8249375;28;20051;-87
2023/08/10 14:08:20;;;;;;;14.90;7.28;;;;;;;26.10;54.52;101039.31;8250389;28;20038;-87
2023/08/10 14:12:20;;;;;;;16.45;6.65;;;;;;;26.12;53.12;101038.00;8200657;28;20489;-87
2023/08/10 14:16:20;;;;;;;13.98;7.10;;;;;;;26.10;54.26;101025.44;8235021;28;20031;-87
2023/08/10 14:20:21;;;;;;;13.35;7.05;;;;;;;26.36;52.43;101042.63;8201714;28;20043;-87
2023/08/10 14:24:22;;;;;;;14.40;7.22;;;;;;;26.03;53.11;101031.03;8265733;28;20042;-87
2023/08/10 14:28:22;;;;;;;14.25;7.35;;;;;;;26.07;53.04;101023.94;8234471;28;20038;-88
2023/08/10 14:32:23;;;;;;;14.63;7.03;;;;;;;25.95;53.56;101036.00;8234458;28;20046;-87
2023/08/10 14:36:24;;;;;;;16.55;7.22;;;;;;;25.91;53.44;101027.28;8271875;28;20029;-87
2023/08/10 14:40:25;;;;;;;14.65;6.93;;;;;;;25.88;53.70;101024.97;8222912;28;20045;-87
2023/08/10 14:44:25;;;;;;;13.95;6.95;;;;;;;26.11;53.12;101024.34;8235585;28;20031;-87
2023/08/10 14:48:26;;;;;;;18.13;6.82;;;;;;;25.73;53.13;100982.91;8292360;28;20062;-87
2023/08/10 14:52:26;;;;;;;16.10;7.72;;;;;;;25.60;53.97;100994.13;8212209;28;20494;-87
2023/08/10 14:56:27;;;;;;;16.38;7.13;;;;;;;25.90;54.89;101008.97;8219585;28;20034;-87
2023/08/10 15:00:31;;;;;;;19.02;8.10;;;;;;;25.64;54.42;101017.53;8218932;28;20049;-87
2023/08/10 15:04:33;;;;;;;17.17;8.57;;;;;;;25.68;55.74;100996.59;8243276;28;20049;-87
2023/08/10 15:08:34;;;;;;;22.60;8.90;;;;;;;25.57;55.28;100972.41;8231324;28;20110;-88
2023/08/10 15:12:35;;;;;;;17.08;8.30;;;;;;;25.62;54.11;100975.38;8232587;28;20053;-87
2023/08/10 15:16:36;;;;;;;23.50;8.43;;;;;;;25.53;54.59;101020.19;8215504;28;20042;-88
2023/08/10 15:20:36;;;;;;;18.73;8.40;;;;;;;25.49;54.27;101002.34;8208729;28;20138;-87
2023/08/10 15:24:37;;;;;;;17.63;7.90;;;;;;;25.62;56.82;100986.44;8205926;28;20046;-87
2023/08/10 15:28:38;;;;;;;18.17;7.90;;;;;;;25.98;54.52;100996.78;8243335;28;20105;-87
2023/08/10 15:32:38;;;;;;;19.88;8.15;;;;;;;26.02;55.22;100990.56;8233552;28;20039;-87
2023/08/10 15:36:39;;;;;;;17.45;7.88;;;;;;;25.76;54.64;101001.84;8246880;28;20035;-87
2023/08/10 15:40:39;;;;;;;16.20;7.45;;;;;;;25.60;55.68;100991.34;8217108;28;20045;-87
2023/08/10 15:44:40;;;;;;;19.35;8.13;;;;;;;25.65;56.59;100996.22;8236321;28;20058;-87
2023/08/10 15:48:40;;;;;;;15.60;7.15;;;;;;;25.77;55.69;100992.47;8255356;28;20043;-87
2023/08/10 15:52:41;;;;;;;21.80;8.25;;;;;;;25.52;55.23;100983.31;8238640;28;20049;-87
2023/08/10 15:56:41;;;;;;;18.95;8.05;;;;;;;25.49;55.11;100985.72;8252898;28;20034;-88
2023/08/10 16:00:42;;;;;;;17.33;7.40;;;;;;;25.47;56.38;100983.16;8251039;28;20038;-86
2023/08/10 16:04:43;;;;;;;18.15;7.20;;;;;;;25.39;55.17;100986.22;8255640;28;20468;-88
2023/08/10 16:08:43;;;;;;;13.27;5.55;;;;;;;25.55;54.72;100969.00;8192248;28;20047;-86
2023/08/10 16:12:44;;;;;;;13.20;5.72;;;;;;;25.46;56.75;100977.84;8235601;28;20523;-87
2023/08/10 16:16:46;;;;;;;14.02;6.25;;;;;;;25.59;55.50;100989.66;8218979;28;20041;-88
2023/08/10 16:20:47;;;;;;;13.00;5.75;;;;;;;25.65;56.09;100980.44;8277224;28;20055;-87
2023/08/10 16:24:47;;;;;;;11.90;5.47;;;;;;;25.57;55.56;100975.19;8255835;28;20039;-87
2023/08/10 16:28:48;;;;;;;12.98;5.05;;;;;;;25.59;56.68;100950.03;8217704;28;20065;-87
2023/08/10 16:32:48;;;;;;;10.88;5.05;;;;;;;25.53;55.71;100979.50;8236147;28;20035;-87
2023/08/10 16:36:49;;;;;;;10.65;4.93;;;;;;;25.55;56.34;100985.63;8266216;28;20383;-87
2023/08/10 16:40:49;;;;;;;11.77;4.03;;;;;;;25.48;56.72;100971.00;8219174;28;20178;-87
2023/08/10 16:44:50;;;;;;;8.68;3.85;;;;;;;25.34;56.44;100983.25;8193656;28;20106;-87
2023/08/10 16:48:50;;;;;;;9.68;4.35;;;;;;;25.35;56.03;100997.97;8221578;28;20497;-87
2023/08/10 16:52:50;;;;;;;9.18;3.78;;;;;;;25.47;57.44;101004.47;8232973;28;20043;-88
2023/08/10 16:56:51;;;;;;;6.78;3.50;;;;;;;25.38;57.46;100998.38;8250844;28;20038;-88
2023/08/10 17:00:52;;;;;;;7.20;3.58;;;;;;;25.30;56.42;100975.59;8251834;28;20125;-87
2023/08/10 17:04:53;;;;;;;9.07;4.30;;;;;;;25.18;58.07;100989.31;8226233;28;20042;-88
2023/08/10 17:08:53;;;;;;;9.55;4.30;;;;;;;25.24;56.89;100999.50;8218902;28;20099;-87
2023/08/10 17:12:54;;;;;;;14.05;3.92;;;;;;;25.33;57.32;101000.94;8201394;28;20083;-87
2023/08/10 17:16:55;;;;;;;6.75;3.30;;;;;;;25.18;57.59;100994.84;8254909;28;20043;-87
2023/08/10 17:20:55;;;;;;;10.68;3.75;;;;;;;25.06;59.18;100995.81;8186660;28;20050;-87
2023/08/10 17:24:56;;;;;;;8.77;3.65;;;;;;;24.98;58.21;100988.63;8245105;28;20113;-89
2023/08/10 17:28:56;;;;;;;8.68;3.20;;;;;;;25.07;58.80;100997.50;8233255;28;20047;-89
2023/08/10 17:32:57;;;;;;;10.45;3.58;;;;;;;25.01;58.09;100985.41;8234868;28;20042;-88
2023/08/10 17:36:58;;;;;;;8.75;3.47;;;;;;;24.97;57.92;100976.69;8250070;28;20035;-88
2023/08/10 17:40:58;;;;;;;12.35;3.67;;;;;;;24.93;58.42;100963.53;8221742;28;20489;-87
2023/08/10 17:44:59;;;;;;;8.80;3.75;;;;;;;25.04;58.23;100976.66;8204754;28;20046;-87
2023/08/10 17:48:59;;;;;;;11.50;3.25;;;;;;;25.18;57.54;100994.03;8282065;28;20041;-86
2023/08/10 17:53:00;;;;;;;8.88;3.70;;;;;;;25.15;57.67;100987.00;8237615;28;20111;-87
2023/08/10 17:57:01;;;;;;;9.00;4.05;;;;;;;25.02;58.47;100982.41;8287286;28;20054;-87
2023/08/10 18:01:04;;;;;;;6.03;3.17;;;;;;;24.94;58.96;100993.75;8270698;28;20035;-87
2023/08/10 18:05:05;;;;;;;7.90;3.37;;;;;;;24.85;59.89;100983.16;8254517;28;20038;-87
2023/08/10 18:09:08;;;;;;;7.95;3.65;;;;;;;24.86;59.89;100995.94;8286965;28;20054;-87
2023/08/10 18:13:08;;;;;;;5.28;2.65;;;;;;;24.70;60.42;100979.84;8303620;28;20034;-88
2023/08/10 18:17:09;;;;;;;6.65;2.65;;;;;;;24.69;61.47;100989.19;8264296;28;20038;-87
2023/08/10 18:21:09;;;;;;;10.20;3.17;;;;;;;24.51;62.16;100975.22;8242816;28;20046;-87
2023/08/10 18:25:10;;;;;;;5.55;2.83;;;;;;;24.44;62.72;100974.41;8213439;28;20039;-87
2023/08/10 18:29:11;;;;;;;13.15;3.25;;;;;;;24.37;63.57;100968.06;8233721;28;20074;-87
2023/08/10 18:33:11;;;;;;;8.75;3.28;;;;;;;24.29;64.00;100980.22;8219970;28;20046;-87
2023/08/10 18:37:12;;;;;;;9.65;3.58;;;;;;;24.09;65.05;100981.34;8224739;28;20046;-87